Airport View

Enter AWOS ICAO identifier for current METAR.

ex. KFNL

PARS 202356Z AUTO 32007G15KT 10SM SCT034 BKN047 10/03 A2948 RMK AO2 SLP988 T01000033 10100 20028 56005 $

21 Sep 2019 00:25

Frequency: 118.375

Phone: 907-584-5521

Other Area AWOS: PADM - PALG - PAHC - PANI

TAF PABE 202321Z 2100/2124 34018KT P6SM FEW025 SCT080 FM210600 31011KT P6SM FEW050 SCT250 FM211000 VRB06KT P6SM SCT050 BKN100 FM211900 16015G23KT P6SM -RA BKN025